createdAt,value
2022-08-04T00:00:15.267Z,24.95
2022-08-04T00:03:13.018Z,24.60
2022-08-04T00:06:09.548Z,24.88
2022-08-04T00:08:50.137Z,24.86
2022-08-04T00:11:23.037Z,24.70
2022-08-04T00:14:02.294Z,24.73
2022-08-04T00:16:38.568Z,24.59
2022-08-04T00:19:23.300Z,24.38
2022-08-04T00:21:59.615Z,24.46
2022-08-04T00:24:30.641Z,24.62
2022-08-04T00:26:58.675Z,24.56
2022-08-04T00:29:27.689Z,24.56
2022-08-04T00:31:58.019Z,24.30
2022-08-04T00:34:31.428Z,24.36
2022-08-04T00:36:59.846Z,24.14
2022-08-04T00:39:28.014Z,24.31
2022-08-04T00:42:14.220Z,24.15
2022-08-04T00:44:42.152Z,24.03
2022-08-04T00:47:17.666Z,24.02
2022-08-04T00:50:09.490Z,24.14
2022-08-04T00:52:46.746Z,24.06
2022-08-04T00:55:30.148Z,24.25
2022-08-04T00:58:30.009Z,24.09
2022-08-04T01:01:05.238Z,24.19
2022-08-04T01:03:48.340Z,24.04
2022-08-04T01:06:27.359Z,24.06
2022-08-04T01:09:25.195Z,24.05
2022-08-04T01:12:19.354Z,24.01
2022-08-04T01:14:57.008Z,24.08
2022-08-04T01:17:37.810Z,24.10
2022-08-04T01:20:10.825Z,23.92
2022-08-04T01:22:57.259Z,23.86
2022-08-04T01:25:58.995Z,23.76
2022-08-04T01:28:42.832Z,23.61
2022-08-04T01:31:41.092Z,23.54
2022-08-04T01:34:13.481Z,23.77
2022-08-04T01:36:50.042Z,23.68
2022-08-04T01:39:39.544Z,23.69
2022-08-04T01:42:09.704Z,23.63
2022-08-04T01:44:39.547Z,23.47
2022-08-04T01:47:08.172Z,23.20
2022-08-04T01:49:40.669Z,23.23
2022-08-04T01:52:10.477Z,22.96
2022-08-04T01:54:42.173Z,22.94
2022-08-04T01:57:37.883Z,23.32
2022-08-04T02:00:00.500Z,23.61
2022-08-04T02:02:28.556Z,23.34
2022-08-04T02:04:56.819Z,23.37
2022-08-04T02:07:27.075Z,23.20
2022-08-04T02:10:04.080Z,23.43
2022-08-04T02:12:49.493Z,23.38
2022-08-04T02:15:28.229Z,23.57
2022-08-04T02:17:56.094Z,23.30
2022-08-04T02:20:33.554Z,23.69
2022-08-04T02:23:08.019Z,23.58
2022-08-04T02:25:47.721Z,23.47
2022-08-04T02:28:22.897Z,23.41
2022-08-04T02:30:53.621Z,23.52
2022-08-04T02:33:27.419Z,23.31
2022-08-04T02:35:59.842Z,23.38
2022-08-04T02:38:54.289Z,23.40
2022-08-04T02:41:27.258Z,23.54
2022-08-04T02:44:00.679Z,23.48
2022-08-04T02:46:30.512Z,23.41
2022-08-04T02:49:01.579Z,23.22
2022-08-04T02:51:30.141Z,23.09
2022-08-04T02:53:59.818Z,22.94
2022-08-04T02:56:30.690Z,22.91
2022-08-04T02:59:01.936Z,23.21
2022-08-04T03:01:30.495Z,23.24
2022-08-04T03:04:22.115Z,23.24
2022-08-04T03:07:24.564Z,23.50
2022-08-04T03:10:18.384Z,23.45
2022-08-04T03:13:24.554Z,23.08
2022-08-04T03:16:30.384Z,23.47
2022-08-04T03:19:25.177Z,23.43
2022-08-04T03:22:12.033Z,23.37
2022-08-04T03:24:48.716Z,23.38
2022-08-04T03:27:25.623Z,23.43
2022-08-04T03:29:59.592Z,23.29
2022-08-04T03:32:59.914Z,23.28
2022-08-04T03:35:39.589Z,23.11
2022-08-04T03:38:24.010Z,23.00
2022-08-04T03:41:04.209Z,22.81
2022-08-04T03:43:58.279Z,22.95
2022-08-04T03:46:48.347Z,23.08
2022-08-04T03:49:41.218Z,23.23
2022-08-04T03:52:48.850Z,23.03
2022-08-04T03:55:32.089Z,22.93
2022-08-04T03:58:05.925Z,22.77
2022-08-04T04:00:53.132Z,22.55
2022-08-04T04:03:53.099Z,22.60
2022-08-04T04:06:54.438Z,22.53
2022-08-04T04:09:57.770Z,22.79
2022-08-04T04:12:42.684Z,22.93
2022-08-04T04:15:54.614Z,22.88
2022-08-04T04:19:06.489Z,23.28
2022-08-04T04:21:37.075Z,23.44
2022-08-04T04:24:35.323Z,23.89
2022-08-04T04:27:22.641Z,24.19
2022-08-04T04:29:56.838Z,24.41
2022-08-04T04:32:44.539Z,24.14
2022-08-04T04:35:37.911Z,23.95
2022-08-04T04:38:24.307Z,24.17
2022-08-04T04:40:57.894Z,24.00
2022-08-04T04:44:04.675Z,24.50
2022-08-04T04:46:59.938Z,24.74
2022-08-04T04:49:54.643Z,24.46
2022-08-04T04:52:30.949Z,24.67
2022-08-04T04:55:20.984Z,24.84
2022-08-04T04:57:53.910Z,24.97
2022-08-04T05:00:45.991Z,24.89
2022-08-04T05:03:22.671Z,24.96
2022-08-04T05:05:59.953Z,25.19
2022-08-04T05:09:14.426Z,25.52
2022-08-04T05:12:00.333Z,25.27
2022-08-04T05:14:50.325Z,25.30
2022-08-04T05:17:27.742Z,25.22
2022-08-04T05:20:06.401Z,25.34
2022-08-04T05:22:52.703Z,25.75
2022-08-04T05:25:37.053Z,25.66
2022-08-04T05:28:16.736Z,25.92
2022-08-04T05:30:50.295Z,25.93
2022-08-04T05:33:33.189Z,25.84
2022-08-04T05:36:20.868Z,25.83
2022-08-04T05:39:00.058Z,26.00
2022-08-04T05:41:32.120Z,26.20
2022-08-04T05:44:10.483Z,26.53
2022-08-04T05:46:38.392Z,26.97
2022-08-04T05:49:08.447Z,27.40
2022-08-04T05:51:36.496Z,27.37
2022-08-04T05:54:06.636Z,27.40
2022-08-04T05:56:35.689Z,27.67
2022-08-04T05:59:05.748Z,27.87
2022-08-04T06:01:55.318Z,27.88
2022-08-04T06:04:28.320Z,27.73
2022-08-04T06:06:56.025Z,27.62
2022-08-04T06:09:24.257Z,27.96
2022-08-04T06:12:00.608Z,27.97
2022-08-04T06:14:37.426Z,27.64
2022-08-04T06:19:56.151Z,27.83
2022-08-04T06:20:02.310Z,27.88
2022-08-04T06:22:46.504Z,28.33
2022-08-04T06:25:21.151Z,28.67
2022-08-04T06:27:51.210Z,28.40
2022-08-04T06:30:20.227Z,28.11
2022-08-04T06:33:03.458Z,28.50
2022-08-04T06:35:34.114Z,28.36
2022-08-04T06:38:03.155Z,28.30
2022-08-04T06:40:34.217Z,28.24
2022-08-04T06:43:06.068Z,28.25
2022-08-04T06:45:37.192Z,28.23
2022-08-04T06:48:06.598Z,28.35
2022-08-04T06:51:30.390Z,28.37
2022-08-04T06:53:25.114Z,28.57
2022-08-04T06:55:54.131Z,28.70
2022-08-04T06:58:23.455Z,28.69
2022-08-04T07:00:52.845Z,28.74
2022-08-04T07:03:21.832Z,28.39
2022-08-04T07:05:56.196Z,29.04
2022-08-04T07:08:24.403Z,29.15
2022-08-04T07:10:53.458Z,28.82
2022-08-04T07:13:22.505Z,28.92
2022-08-04T07:15:51.216Z,29.13
2022-08-04T07:18:19.804Z,29.70
2022-08-04T07:20:49.173Z,29.40
2022-08-04T07:23:22.767Z,29.82
2022-08-04T07:25:59.801Z,29.67
2022-08-04T07:28:41.902Z,30.06
2022-08-04T07:31:33.707Z,29.99
2022-08-04T07:34:20.838Z,30.33
2022-08-04T07:36:55.930Z,30.01
2022-08-04T07:39:28.427Z,30.15
2022-08-04T07:42:02.510Z,30.25
2022-08-04T07:44:32.378Z,30.72
2022-08-04T07:47:06.439Z,30.76
2022-08-04T07:49:55.251Z,31.13
2022-08-04T07:52:25.079Z,31.00
2022-08-04T07:54:53.899Z,31.39
2022-08-04T07:57:41.383Z,31.57
2022-08-04T08:00:15.224Z,31.57
2022-08-04T08:02:45.752Z,31.76
2022-08-04T08:05:17.026Z,32.08
2022-08-04T08:07:55.220Z,31.82
2022-08-04T08:10:24.849Z,31.79
2022-08-04T08:12:54.724Z,32.22
2022-08-04T08:15:22.612Z,32.17
2022-08-04T08:17:59.965Z,32.43
2022-08-04T08:20:31.038Z,32.51
2022-08-04T08:23:00.897Z,32.73
2022-08-04T08:25:30.017Z,32.51
2022-08-04T08:27:57.670Z,32.75
2022-08-04T08:30:31.394Z,32.42
2022-08-04T08:33:03.757Z,32.30
2022-08-04T08:35:51.088Z,32.51
2022-08-04T08:38:37.686Z,32.50
2022-08-04T08:41:36.403Z,32.95
2022-08-04T08:44:57.632Z,32.46
2022-08-04T08:48:04.998Z,32.29
2022-08-04T08:50:50.983Z,32.53
2022-08-04T08:53:21.381Z,32.43
2022-08-04T08:55:58.362Z,32.65
2022-08-04T08:59:14.925Z,32.68
2022-08-04T09:01:46.167Z,32.91
2022-08-04T09:04:55.262Z,32.92
2022-08-04T09:07:46.510Z,33.03
2022-08-04T09:10:44.817Z,33.32
2022-08-04T09:13:27.942Z,32.98
2022-08-04T09:16:10.449Z,33.51
2022-08-04T09:18:59.999Z,33.61
2022-08-04T09:21:48.288Z,32.75
2022-08-04T09:24:35.381Z,33.07
2022-08-04T09:27:20.166Z,33.33
2022-08-04T09:30:07.748Z,33.70
2022-08-04T09:32:38.206Z,33.64
2022-08-04T09:35:33.776Z,33.88
2022-08-04T09:38:23.451Z,33.67
2022-08-04T09:41:07.410Z,33.58
2022-08-04T09:44:52.373Z,33.86
2022-08-04T09:47:11.853Z,33.93
2022-08-04T09:49:47.750Z,34.49
2022-08-04T09:52:49.951Z,33.93
2022-08-04T09:55:34.731Z,33.80
2022-08-04T09:58:16.532Z,33.88
2022-08-04T10:00:51.269Z,34.42
2022-08-04T10:03:23.310Z,34.04
2022-08-04T10:06:23.451Z,33.96
2022-08-04T10:09:33.013Z,34.12
2022-08-04T10:12:24.588Z,34.46
2022-08-04T10:15:03.003Z,34.21
2022-08-04T10:17:52.865Z,34.43
2022-08-04T10:20:36.503Z,34.15
2022-08-04T10:23:55.267Z,34.17
2022-08-04T10:26:24.752Z,34.41
2022-08-04T10:29:15.478Z,34.61
2022-08-04T10:31:49.509Z,34.28
2022-08-04T10:34:21.982Z,34.75
2022-08-04T10:36:58.482Z,34.56
2022-08-04T10:39:44.445Z,33.87
2022-08-04T10:42:29.940Z,34.81
2022-08-04T10:45:22.556Z,35.06
2022-08-04T10:48:34.215Z,34.78
2022-08-04T10:51:20.140Z,34.92
2022-08-04T10:53:55.978Z,34.48
2022-08-04T10:56:37.424Z,34.52
2022-08-04T10:59:36.969Z,34.29
2022-08-04T11:02:17.962Z,34.90
2022-08-04T11:04:59.631Z,34.63
2022-08-04T11:07:33.595Z,35.24
2022-08-04T11:10:02.712Z,35.33
2022-08-04T11:12:33.839Z,35.37
2022-08-04T11:15:08.932Z,35.37
2022-08-04T11:17:40.821Z,34.77
2022-08-04T11:20:34.969Z,35.13
2022-08-04T11:23:15.431Z,34.68
2022-08-04T11:26:02.233Z,34.05
2022-08-04T11:29:03.173Z,34.41
2022-08-04T11:31:33.692Z,34.35
2022-08-04T11:34:10.213Z,34.58
2022-08-04T11:37:06.235Z,34.42
2022-08-04T11:39:49.018Z,34.21
2022-08-04T11:42:56.523Z,34.51
2022-08-04T11:46:01.837Z,34.56
2022-08-04T11:48:42.145Z,34.75
2022-08-04T11:51:10.072Z,34.99
2022-08-04T11:53:40.129Z,34.36
2022-08-04T11:56:11.128Z,34.01
2022-08-04T11:58:39.440Z,34.37
2022-08-04T12:01:43.455Z,34.49
2022-08-04T12:04:24.449Z,34.61
2022-08-04T12:07:21.359Z,34.12
2022-08-04T12:10:41.379Z,34.59
2022-08-04T12:13:28.542Z,33.98
2022-08-04T12:16:03.670Z,34.32
2022-08-04T12:18:39.365Z,34.44
2022-08-04T12:21:31.160Z,34.51
2022-08-04T12:24:09.543Z,34.62
2022-08-04T12:26:43.595Z,34.23
2022-08-04T12:29:17.397Z,34.29
2022-08-04T12:31:55.649Z,34.16
2022-08-04T12:34:34.676Z,34.15
2022-08-04T12:37:09.808Z,34.48
2022-08-04T12:40:22.601Z,34.49
2022-08-04T12:42:42.258Z,34.26
2022-08-04T12:45:28.848Z,34.58
2022-08-04T12:47:59.715Z,34.59
2022-08-04T12:50:28.876Z,34.68
2022-08-04T12:53:02.047Z,34.35
2022-08-04T12:55:34.266Z,34.00
2022-08-04T12:58:11.839Z,34.21
2022-08-04T13:00:42.080Z,34.05
2022-08-04T13:03:14.612Z,34.27
2022-08-04T13:05:43.728Z,34.14
2022-08-04T13:08:13.298Z,34.13
2022-08-04T13:10:47.219Z,33.37
2022-08-04T13:13:20.723Z,33.91
2022-08-04T13:15:57.117Z,33.54
2022-08-04T13:18:30.416Z,33.91
2022-08-04T13:21:16.999Z,33.93
2022-08-04T13:24:10.842Z,34.06
2022-08-04T13:26:58.199Z,34.22
2022-08-04T13:30:00.412Z,33.99
2022-08-04T13:32:35.892Z,34.10
2022-08-04T13:35:05.944Z,33.81
2022-08-04T13:37:41.696Z,33.98
2022-08-04T13:40:12.783Z,34.25
2022-08-04T13:42:46.785Z,34.38
2022-08-04T13:45:18.937Z,34.12
2022-08-04T13:47:48.670Z,33.56
2022-08-04T13:50:23.768Z,33.69
2022-08-04T13:52:54.874Z,33.90
2022-08-04T13:55:33.495Z,33.74
2022-08-04T13:58:01.416Z,33.25
2022-08-04T14:00:41.765Z,33.49
2022-08-04T14:03:23.445Z,33.62
2022-08-04T14:06:11.630Z,33.77
2022-08-04T14:09:08.747Z,33.30
2022-08-04T14:12:10.675Z,33.67
2022-08-04T14:14:37.350Z,33.77
2022-08-04T14:17:20.477Z,33.66
2022-08-04T14:19:57.462Z,33.72
2022-08-04T14:22:28.283Z,33.43
2022-08-04T14:24:57.673Z,33.40
2022-08-04T14:27:28.366Z,33.54
2022-08-04T14:29:57.111Z,33.41
2022-08-04T14:32:26.442Z,33.45
2022-08-04T14:34:54.353Z,33.37
2022-08-04T14:37:23.405Z,33.55
2022-08-04T14:40:18.744Z,33.20
2022-08-04T14:42:55.024Z,33.21
2022-08-04T14:45:38.955Z,32.55
2022-08-04T14:48:22.731Z,33.21
2022-08-04T14:50:51.010Z,32.94
2022-08-04T14:53:22.544Z,32.98
2022-08-04T14:55:53.873Z,32.92
2022-08-04T14:58:33.696Z,32.77
2022-08-04T15:01:12.449Z,32.85
2022-08-04T15:03:49.981Z,32.70
2022-08-04T15:06:26.396Z,32.42
2022-08-04T15:08:56.870Z,32.35
2022-08-04T15:11:29.892Z,32.27
2022-08-04T15:13:58.989Z,32.58
2022-08-04T15:16:29.826Z,32.63
2022-08-04T15:18:59.979Z,32.43
2022-08-04T15:21:29.861Z,32.32
2022-08-04T15:23:58.772Z,32.53
2022-08-04T15:26:38.867Z,32.31
2022-08-04T15:29:19.166Z,32.46
2022-08-04T15:32:07.865Z,32.55
2022-08-04T15:34:54.960Z,32.33
2022-08-04T15:38:10.595Z,31.83
2022-08-04T15:40:48.533Z,32.07
2022-08-04T15:43:31.252Z,31.91
2022-08-04T15:46:33.021Z,32.29
2022-08-04T15:48:52.068Z,32.18
2022-08-04T15:51:32.273Z,32.19
2022-08-04T15:54:02.747Z,32.20
2022-08-04T15:56:32.242Z,32.25
2022-08-04T15:59:00.085Z,32.18
2022-08-04T16:01:28.226Z,32.22
2022-08-04T16:04:01.083Z,31.73
2022-08-04T16:06:30.431Z,31.48
2022-08-04T16:09:00.995Z,32.03
2022-08-04T16:11:36.885Z,31.99
2022-08-04T16:14:06.586Z,31.68
2022-08-04T16:16:37.469Z,31.83
2022-08-04T16:19:05.443Z,32.04
2022-08-04T16:21:35.007Z,32.00
2022-08-04T16:24:31.720Z,32.04
2022-08-04T16:27:02.157Z,31.92
2022-08-04T16:29:40.100Z,31.46
2022-08-04T16:32:14.111Z,31.80
2022-08-04T16:34:54.421Z,31.61
2022-08-04T16:37:31.139Z,31.64
2022-08-04T16:40:47.200Z,31.44
2022-08-04T16:43:21.196Z,31.56
2022-08-04T16:46:13.545Z,31.57
2022-08-04T16:49:06.296Z,31.46
2022-08-04T16:51:34.192Z,31.42
2022-08-04T16:54:05.561Z,31.68
2022-08-04T16:56:35.576Z,31.33
2022-08-04T16:59:13.249Z,31.23
2022-08-04T17:01:52.353Z,31.49
2022-08-04T17:04:31.155Z,31.13
2022-08-04T17:07:03.970Z,31.35
2022-08-04T17:09:32.846Z,31.36
2022-08-04T17:12:02.282Z,31.60
2022-08-04T17:14:31.390Z,31.42
2022-08-04T17:17:01.925Z,31.62
2022-08-04T17:19:29.638Z,31.69
2022-08-04T17:22:05.511Z,31.29
2022-08-04T17:24:36.902Z,31.34
2022-08-04T17:28:09.085Z,31.22
2022-08-04T17:29:54.779Z,31.33
2022-08-04T17:32:23.608Z,31.38
2022-08-04T17:34:55.171Z,31.34
2022-08-04T17:37:53.065Z,31.44
2022-08-04T17:40:18.514Z,31.35
2022-08-04T17:44:01.401Z,31.23
2022-08-04T17:46:15.559Z,31.36
2022-08-04T17:48:57.202Z,31.24
2022-08-04T17:52:04.297Z,31.17
2022-08-04T17:54:39.092Z,30.95
2022-08-04T17:57:19.967Z,30.95
2022-08-04T17:59:57.860Z,30.60
2022-08-04T18:02:32.564Z,30.74
2022-08-04T18:08:37.643Z,30.73
2022-08-04T18:10:55.696Z,30.55
2022-08-04T18:13:28.298Z,30.31
2022-08-04T18:16:09.019Z,30.35
2022-08-04T18:18:48.894Z,29.97
2022-08-04T18:21:17.077Z,30.13
2022-08-04T18:23:50.905Z,29.93
2022-08-04T18:26:23.737Z,29.44
2022-08-04T18:28:53.465Z,29.76
2022-08-04T18:31:21.496Z,29.68
2022-08-04T18:33:59.094Z,29.52
2022-08-04T18:36:33.808Z,29.95
2022-08-04T18:39:13.266Z,29.66
2022-08-04T18:42:01.207Z,29.67
2022-08-04T18:44:32.140Z,29.88
2022-08-04T18:47:22.560Z,29.66
2022-08-04T18:51:00.443Z,29.74
2022-08-04T18:52:42.098Z,29.06
2022-08-04T18:55:55.706Z,29.22
2022-08-04T18:58:07.112Z,29.25
2022-08-04T19:00:36.287Z,28.67
2022-08-04T19:03:05.062Z,28.46
2022-08-04T19:05:38.174Z,28.32
2022-08-04T19:08:32.629Z,28.32
2022-08-04T19:10:59.934Z,28.37
2022-08-04T19:13:34.804Z,28.19
2022-08-04T19:16:03.104Z,28.01
2022-08-04T19:18:36.522Z,28.20
2022-08-04T19:24:30.399Z,28.07
2022-08-04T19:26:42.614Z,28.16
2022-08-04T19:29:18.701Z,28.46
2022-08-04T19:31:46.397Z,27.73
2022-08-04T19:34:14.082Z,28.18
2022-08-04T19:36:46.028Z,27.57
2022-08-04T19:39:14.295Z,27.71
2022-08-04T19:42:05.877Z,27.45
2022-08-04T19:44:31.665Z,27.86
2022-08-04T19:47:00.895Z,27.28
2022-08-04T19:50:05.088Z,27.31
2022-08-04T19:52:34.107Z,27.29
2022-08-04T19:55:10.942Z,27.08
2022-08-04T19:57:46.096Z,27.08
2022-08-04T20:00:15.260Z,27.21
2022-08-04T20:02:45.202Z,26.85
2022-08-04T20:05:13.533Z,26.47
2022-08-04T20:07:41.311Z,26.83
2022-08-04T20:10:13.090Z,27.02
2022-08-04T20:12:42.198Z,27.18
2022-08-04T20:15:10.945Z,26.74
2022-08-04T20:18:08.416Z,26.41
2022-08-04T20:20:28.345Z,26.89
2022-08-04T20:22:56.073Z,26.38
2022-08-04T20:25:37.221Z,26.27
2022-08-04T20:28:06.088Z,26.43
2022-08-04T20:30:33.809Z,26.51
2022-08-04T20:33:04.389Z,26.80
2022-08-04T20:35:45.912Z,26.34
2022-08-04T20:38:33.101Z,26.36
2022-08-04T20:41:02.531Z,26.27
2022-08-04T20:43:31.389Z,26.19
2022-08-04T20:45:59.722Z,26.50
2022-08-04T20:48:29.114Z,25.93
2022-08-04T20:51:01.184Z,26.15
2022-08-04T20:53:32.786Z,26.11
2022-08-04T20:56:19.167Z,26.18
2022-08-04T20:58:59.935Z,26.03
2022-08-04T21:01:29.906Z,26.25
2022-08-04T21:04:27.369Z,25.87
2022-08-04T21:06:58.012Z,25.70
2022-08-04T21:09:38.041Z,25.09
2022-08-04T21:12:26.668Z,25.22
2022-08-04T21:15:13.501Z,25.44
2022-08-04T21:17:59.191Z,25.66
2022-08-04T21:20:33.588Z,25.35
2022-08-04T21:23:04.881Z,25.16
2022-08-04T21:25:39.097Z,24.91
2022-08-04T21:28:12.421Z,25.00
2022-08-04T21:30:54.501Z,24.84
2022-08-04T21:33:28.213Z,25.10
2022-08-04T21:36:14.045Z,25.38
2022-08-04T21:38:42.021Z,25.36
2022-08-04T21:41:24.950Z,25.11
2022-08-04T21:43:55.331Z,24.90
2022-08-04T21:46:24.221Z,24.97
2022-08-04T21:48:52.101Z,25.01
2022-08-04T21:51:59.684Z,24.84
2022-08-04T21:54:17.297Z,25.27
2022-08-04T21:56:50.695Z,25.43
2022-08-04T21:59:23.901Z,25.19
2022-08-04T22:02:00.868Z,25.32
2022-08-04T22:04:30.746Z,25.03
2022-08-04T22:07:02.630Z,24.89
2022-08-04T22:09:38.583Z,24.90
2022-08-04T22:12:11.924Z,25.08
2022-08-04T22:14:40.779Z,24.74
2022-08-04T22:17:23.867Z,24.71
2022-08-04T22:19:56.402Z,24.69
2022-08-04T22:22:29.170Z,24.34
2022-08-04T22:25:12.419Z,24.14
2022-08-04T22:28:01.596Z,24.00
2022-08-04T22:30:36.863Z,23.85
2022-08-04T22:33:08.031Z,24.14
2022-08-04T22:35:49.203Z,23.99
2022-08-04T22:38:26.800Z,24.20
2022-08-04T22:41:01.740Z,24.15
2022-08-04T22:43:31.835Z,24.34
2022-08-04T22:46:08.083Z,24.26
2022-08-04T22:48:38.606Z,24.55
2022-08-04T22:51:07.747Z,24.47
2022-08-04T22:53:36.313Z,24.57
2022-08-04T22:56:10.460Z,24.41
2022-08-04T22:58:44.853Z,24.44
2022-08-04T23:01:16.649Z,24.12
2022-08-04T23:03:50.963Z,24.01
2022-08-04T23:06:28.399Z,24.29
2022-08-04T23:08:57.855Z,24.03
2022-08-04T23:11:34.610Z,24.37
2022-08-04T23:14:05.253Z,24.34
2022-08-04T23:16:40.845Z,24.24
2022-08-04T23:19:12.066Z,24.18
2022-08-04T23:21:47.993Z,24.02
2022-08-04T23:24:30.183Z,24.09
2022-08-04T23:26:59.263Z,24.31
2022-08-04T23:29:27.696Z,24.36
2022-08-04T23:32:15.636Z,23.79
2022-08-04T23:34:48.196Z,23.68
2022-08-04T23:37:16.191Z,23.30
2022-08-04T23:40:14.349Z,23.44
2022-08-04T23:42:31.976Z,23.41
2022-08-04T23:44:59.726Z,24.03
2022-08-04T23:48:16.580Z,24.04
2022-08-04T23:50:16.286Z,23.94
2022-08-04T23:52:44.542Z,23.75
2022-08-04T23:55:19.195Z,23.91
2022-08-04T23:58:05.552Z,24.07
